Time,TemperatureF,DewpointF,PressureIn,WindDirection,WindDirectionDegrees,WindSpeedMPH,WindSpeedGustMPH,Humidity,HourlyPrecipIn,Conditions,Clouds,dailyrainin,SolarRadiationWatts/m^2,SoftwareType,DateUTC
2013-08-13 00:00:00,78.1,75.6,29.98,WSW,257,0.0,0.0,92,0.00,,---,0.00,0.00,VWS V14.01,2013-08-13 04:00:00,
2013-08-13 00:01:00,78.1,75.6,29.98,WSW,257,0.0,0.0,92,0.00,,---,0.00,0.00,VWS V14.01,2013-08-13 04:01:00,
2013-08-13 00:02:00,78.1,75.6,29.98,WSW,257,0.0,0.0,92,0.00,,---,0.00,0.00,VWS V14.01,2013-08-13 04:02:00,
2013-08-13 00:03:00,78.1,75.6,29.98,WSW,257,0.0,0.0,92,0.00,,---,0.00,0.00,VWS V14.01,2013-08-13 04:03:00,
2013-08-13 00:08:00,78.0,75.8,29.98,WSW,257,0.0,0.0,93,0.00,,---,0.00,0.00,VWS V14.01,2013-08-13 04:08:00,
2013-08-13 00:10:00,78.0,75.8,29.98,WSW,257,0.0,0.0,93,0.00,,---,0.00,0.00,VWS V14.01,2013-08-13 04:10:00,
2013-08-13 00:13:00,77.9,75.7,29.98,WSW,257,0.0,0.0,93,0.00,,---,0.00,0.00,VWS V14.01,2013-08-13 04:13:00,
2013-08-13 00:15:00,77.9,75.7,29.97,WSW,257,0.0,0.0,93,0.00,,---,0.00,0.00,VWS V14.01,2013-08-13 04:15:00,
2013-08-13 00:18:00,77.9,75.7,29.97,WSW,257,0.0,0.0,93,0.00,,---,0.00,0.00,VWS V14.01,2013-08-13 04:18:00,
2013-08-13 00:23:00,77.8,75.6,29.97,WSW,257,0.0,0.0,93,0.00,,---,0.00,0.00,VWS V14.01,2013-08-13 04:23:00,
2013-08-13 00:25:00,77.8,75.6,29.97,WSW,257,0.0,0.0,93,0.00,,---,0.00,0.00,VWS V14.01,2013-08-13 04:25:00,
2013-08-13 00:29:00,77.8,75.6,29.97,WSW,257,0.0,0.0,93,0.00,,---,0.00,0.00,VWS V14.01,2013-08-13 04:29:00,
2013-08-13 00:30:00,77.7,75.5,29.97,WSW,257,0.0,0.0,93,0.00,,---,0.00,0.00,VWS V14.01,2013-08-13 04:30:00,
2013-08-13 00:34:00,77.7,75.5,29.97,WSW,257,0.0,0.0,93,0.00,,---,0.00,0.00,VWS V14.01,2013-08-13 04:34:00,
2013-08-13 00:35:00,77.6,75.4,29.97,WSW,257,0.0,0.0,93,0.00,,---,0.00,0.00,VWS V14.01,2013-08-13 04:35:00,
2013-08-13 00:39:00,77.6,75.4,29.97,WSW,257,0.0,0.0,93,0.00,,---,0.00,0.00,VWS V14.01,2013-08-13 04:39:00,
2013-08-13 00:40:00,77.6,75.4,29.97,WSW,257,0.0,0.0,93,0.00,,---,0.00,0.00,VWS V14.01,2013-08-13 04:40:00,
2013-08-13 00:44:00,77.6,75.4,29.97,WSW,257,0.0,0.0,93,0.00,,---,0.00,0.00,VWS V14.01,2013-08-13 04:44:00,
2013-08-13 00:45:00,77.5,75.3,29.97,WSW,257,0.0,0.0,93,0.00,,---,0.00,0.00,VWS V14.01,2013-08-13 04:45:00,
2013-08-13 00:49:00,77.4,75.2,29.97,WSW,257,0.0,0.0,93,0.00,,---,0.00,0.00,VWS V14.01,2013-08-13 04:49:00,
2013-08-13 00:50:00,77.4,75.2,29.97,WSW,257,0.0,0.0,93,0.00,,---,0.00,0.00,VWS V14.01,2013-08-13 04:50:00,
2013-08-13 00:54:00,77.3,75.1,29.97,WSW,257,0.0,0.0,93,0.00,,---,0.00,0.00,VWS V14.01,2013-08-13 04:54:00,
2013-08-13 00:55:00,77.3,75.1,29.97,WSW,257,0.0,0.0,93,0.00,,---,0.00,0.00,VWS V14.01,2013-08-13 04:55:00,
2013-08-13 00:59:00,77.3,75.1,29.97,WSW,257,0.0,0.0,93,0.00,,---,0.00,0.00,VWS V14.01,2013-08-13 04:59:00,
2013-08-13 01:00:00,77.3,75.1,29.97,WSW,257,0.0,0.0,93,0.00,,---,0.00,0.00,VWS V14.01,2013-08-13 05:00:00,
2013-08-13 01:05:00,77.2,75.3,29.97,WSW,257,0.0,0.0,94,0.00,,---,0.00,0.00,VWS V14.01,2013-08-13 05:05:00,
2013-08-13 01:10:00,77.1,75.2,29.97,WSW,257,0.0,0.0,94,0.00,,---,0.00,0.00,VWS V14.01,2013-08-13 05:10:00,
2013-08-13 01:15:00,77.1,75.2,29.98,WSW,257,0.0,0.0,94,0.00,,---,0.00,0.00,VWS V14.01,2013-08-13 05:15:00,
2013-08-13 01:20:00,77.1,75.2,29.98,WSW,257,0.0,0.0,94,0.00,,---,0.00,0.00,VWS V14.01,2013-08-13 05:20:00,
2013-08-13 01:25:00,77.0,75.1,29.98,WSW,257,0.0,0.0,94,0.00,,---,0.00,0.00,VWS V14.01,2013-08-13 05:25:00,
2013-08-13 01:30:00,77.1,75.2,29.97,WSW,257,0.0,0.0,94,0.00,,---,0.00,0.00,VWS V14.01,2013-08-13 05:30:00,
2013-08-13 01:35:00,77.0,75.5,29.98,WSW,257,0.0,0.0,95,0.00,,---,0.00,0.00,VWS V14.01,2013-08-13 05:35:00,
2013-08-13 01:41:00,77.1,75.6,29.97,WSW,257,0.0,0.0,95,0.00,,---,0.00,0.00,VWS V14.01,2013-08-13 05:41:00,
2013-08-13 01:46:00,77.1,75.6,29.97,WSW,257,0.0,0.0,95,0.00,,---,0.00,0.00,VWS V14.01,2013-08-13 05:46:00,
2013-08-13 01:50:00,77.1,75.6,29.97,WSW,257,0.0,0.0,95,0.00,,---,0.00,0.00,VWS V14.01,2013-08-13 05:50:00,
2013-08-13 01:51:00,77.1,75.6,29.97,WSW,257,0.0,0.0,95,0.00,,---,0.00,0.00,VWS V14.01,2013-08-13 05:51:00,
2013-08-13 01:56:00,77.1,75.6,29.97,WSW,257,0.0,0.0,95,0.00,,---,0.00,0.00,VWS V14.01,2013-08-13 05:56:00,
2013-08-13 02:00:00,77.2,75.7,29.97,WSW,257,0.0,1.0,95,0.00,,---,0.00,0.00,VWS V14.01,2013-08-13 06:00:00,
2013-08-13 02:01:00,77.2,75.7,29.97,WSW,257,0.0,0.0,95,0.00,,---,0.00,0.00,VWS V14.01,2013-08-13 06:01:00,
2013-08-13 02:05:00,77.3,75.8,29.97,WSW,257,0.0,0.0,95,0.00,,---,0.00,0.00,VWS V14.01,2013-08-13 06:05:00,
2013-08-13 02:10:00,77.3,75.8,29.96,WSW,257,0.0,0.0,95,0.00,,---,0.00,0.00,VWS V14.01,2013-08-13 06:10:00,
2013-08-13 02:15:00,77.4,75.9,29.96,WSW,257,0.0,0.0,95,0.00,,---,0.00,0.00,VWS V14.01,2013-08-13 06:15:00,
2013-08-13 02:20:00,77.4,75.9,29.95,WSW,257,0.0,0.0,95,0.00,,---,0.00,0.00,VWS V14.01,2013-08-13 06:20:00,
2013-08-13 02:25:00,77.5,76.0,29.96,WSW,257,0.0,1.0,95,0.00,,---,0.00,0.00,VWS V14.01,2013-08-13 06:25:00,
2013-08-13 02:30:00,77.5,76.0,29.96,WSW,257,0.0,0.0,95,0.01,,---,0.01,0.00,VWS V14.01,2013-08-13 06:30:00,
2013-08-13 02:55:00,75.9,74.1,29.96,SSW,212,0.0,5.0,94,0.54,,---,0.54,0.00,VWS V14.01,2013-08-13 06:55:00,
2013-08-13 03:00:00,75.6,73.8,29.96,South,178,0.0,5.0,94,0.56,,---,0.56,0.00,VWS V14.01,2013-08-13 07:00:00,
2013-08-13 03:10:00,75.2,73.4,29.97,South,180,0.0,0.0,94,0.57,,---,0.57,0.00,VWS V14.01,2013-08-13 07:10:00,
2013-08-13 03:15:00,75.1,73.3,29.97,South,187,0.0,4.0,94,0.57,,---,0.57,0.00,VWS V14.01,2013-08-13 07:15:00,
2013-08-13 03:20:00,75.0,73.2,29.97,South,187,0.0,0.0,94,0.57,,---,0.57,0.00,VWS V14.01,2013-08-13 07:20:00,
2013-08-13 03:25:00,74.9,73.1,29.96,South,187,0.0,1.0,94,0.57,,---,0.57,0.00,VWS V14.01,2013-08-13 07:25:00,
2013-08-13 03:30:00,74.8,73.0,29.96,South,188,0.0,0.0,94,0.57,,---,0.57,0.00,VWS V14.01,2013-08-13 07:30:00,
2013-08-13 03:35:00,74.7,72.9,29.97,South,188,0.0,0.0,94,0.56,,---,0.57,0.00,VWS V14.01,2013-08-13 07:35:00,
2013-08-13 03:40:00,74.7,72.9,29.97,South,188,0.0,0.0,94,0.56,,---,0.57,0.00,VWS V14.01,2013-08-13 07:40:00,
2013-08-13 03:45:00,74.6,72.8,29.97,South,188,0.0,0.0,94,0.41,,---,0.57,0.00,VWS V14.01,2013-08-13 07:45:00,
2013-08-13 03:50:00,74.6,73.1,29.97,South,188,0.0,0.0,95,0.19,,---,0.57,0.00,VWS V14.01,2013-08-13 07:50:00,
2013-08-13 03:55:00,74.6,73.1,29.96,South,188,0.0,0.0,95,0.08,,---,0.57,0.00,VWS V14.01,2013-08-13 07:55:00,
2013-08-13 04:00:00,74.7,73.2,29.96,South,188,0.0,0.0,95,0.03,,---,0.57,0.00,VWS V14.01,2013-08-13 08:00:00,
2013-08-13 04:05:00,74.7,73.2,29.97,South,188,0.0,0.0,95,0.01,,---,0.57,0.00,VWS V14.01,2013-08-13 08:05:00,
2013-08-13 04:10:00,74.7,73.2,29.97,South,188,0.0,0.0,95,0.00,,---,0.57,0.00,VWS V14.01,2013-08-13 08:10:00,
2013-08-13 04:15:00,74.7,73.2,29.97,South,188,0.0,0.0,95,0.00,,---,0.57,0.00,VWS V14.01,2013-08-13 08:15:00,
2013-08-13 04:20:00,74.7,73.2,29.97,South,188,0.0,0.0,95,0.00,,---,0.57,0.00,VWS V14.01,2013-08-13 08:20:00,
2013-08-13 04:25:00,74.7,73.2,29.97,South,188,0.0,0.0,95,0.00,,---,0.57,0.00,VWS V14.01,2013-08-13 08:25:00,
2013-08-13 04:26:00,74.7,73.2,29.96,South,188,0.0,0.0,95,0.00,,---,0.57,0.00,VWS V14.01,2013-08-13 08:26:00,
2013-08-13 04:30:00,74.7,73.2,29.96,South,188,0.0,0.0,95,0.00,,---,0.57,0.00,VWS V14.01,2013-08-13 08:30:00,
2013-08-13 04:31:00,74.7,73.2,29.96,South,188,0.0,0.0,95,0.00,,---,0.57,0.00,VWS V14.01,2013-08-13 08:31:00,
2013-08-13 04:35:00,74.7,73.2,29.95,South,188,0.0,0.0,95,0.00,,---,0.57,0.00,VWS V14.01,2013-08-13 08:35:00,
2013-08-13 04:36:00,74.8,73.3,29.95,South,188,0.0,0.0,95,0.00,,---,0.57,0.00,VWS V14.01,2013-08-13 08:36:00,
2013-08-13 04:40:00,74.8,73.6,29.94,South,188,0.0,0.0,96,0.00,,---,0.57,0.00,VWS V14.01,2013-08-13 08:40:00,
2013-08-13 04:41:00,74.8,73.6,29.95,South,188,0.0,0.0,96,0.00,,---,0.57,0.00,VWS V14.01,2013-08-13 08:41:00,
2013-08-13 04:45:00,74.8,73.6,29.95,South,188,0.0,0.0,96,0.00,,---,0.57,0.00,VWS V14.01,2013-08-13 08:45:00,
2013-08-13 04:46:00,74.8,73.6,29.94,South,188,0.0,0.0,96,0.00,,---,0.57,0.00,VWS V14.01,2013-08-13 08:46:00,
2013-08-13 04:51:00,74.8,73.6,29.94,South,188,0.0,0.0,96,0.01,,---,0.58,0.00,VWS V14.01,2013-08-13 08:51:00,
2013-08-13 04:56:00,74.9,73.7,29.94,South,188,0.0,0.0,96,0.01,,---,0.58,0.00,VWS V14.01,2013-08-13 08:56:00,
2013-08-13 05:00:00,74.9,73.7,29.94,South,188,0.0,0.0,96,0.01,,---,0.58,0.00,VWS V14.01,2013-08-13 09:00:00,
2013-08-13 05:01:00,74.9,73.7,29.94,South,188,0.0,0.0,96,0.01,,---,0.58,0.00,VWS V14.01,2013-08-13 09:01:00,
2013-08-13 05:05:00,74.9,73.7,29.94,South,188,0.0,0.0,96,0.01,,---,0.58,0.00,VWS V14.01,2013-08-13 09:05:00,
2013-08-13 05:06:00,74.9,73.7,29.94,South,188,0.0,0.0,96,0.01,,---,0.58,0.00,VWS V14.01,2013-08-13 09:06:00,
2013-08-13 05:11:00,74.9,73.7,29.94,South,188,0.0,0.0,96,0.01,,---,0.58,0.00,VWS V14.01,2013-08-13 09:11:00,
2013-08-13 05:17:00,74.9,73.7,29.94,South,188,0.0,0.0,96,0.01,,---,0.58,0.00,VWS V14.01,2013-08-13 09:17:00,
2013-08-13 05:20:00,74.9,73.7,29.94,South,188,0.0,0.0,96,0.01,,---,0.58,0.00,VWS V14.01,2013-08-13 09:20:00,
2013-08-13 05:22:00,74.9,73.7,29.94,South,188,0.0,0.0,96,0.01,,---,0.58,0.00,VWS V14.01,2013-08-13 09:22:00,
2013-08-13 05:25:00,74.9,73.7,29.94,South,188,0.0,0.0,96,0.01,,---,0.58,0.00,VWS V14.01,2013-08-13 09:25:00,
2013-08-13 05:27:00,74.9,73.7,29.94,South,188,0.0,0.0,96,0.01,,---,0.58,0.00,VWS V14.01,2013-08-13 09:27:00,
2013-08-13 05:30:00,74.9,73.7,29.94,South,188,0.0,0.0,96,0.01,,---,0.58,0.00,VWS V14.01,2013-08-13 09:30:00,
2013-08-13 05:32:00,74.9,73.7,29.95,South,188,0.0,1.0,96,0.01,,---,0.58,0.00,VWS V14.01,2013-08-13 09:32:00,
2013-08-13 05:35:00,74.8,73.6,29.94,South,188,0.0,1.0,96,0.01,,---,0.58,0.00,VWS V14.01,2013-08-13 09:35:00,
2013-08-13 05:37:00,74.8,73.6,29.94,South,188,0.0,0.0,96,0.01,,---,0.58,0.00,VWS V14.01,2013-08-13 09:37:00,
2013-08-13 05:40:00,74.8,73.6,29.94,South,188,0.0,0.0,96,0.01,,---,0.58,0.00,VWS V14.01,2013-08-13 09:40:00,
2013-08-13 05:42:00,74.8,73.6,29.94,South,188,0.0,0.0,96,0.01,,---,0.58,0.00,VWS V14.01,2013-08-13 09:42:00,
2013-08-13 05:45:00,74.8,73.6,29.94,South,188,0.0,0.0,96,0.01,,---,0.58,0.00,VWS V14.01,2013-08-13 09:45:00,
2013-08-13 05:48:00,74.8,73.6,29.93,South,188,0.0,0.0,96,0.01,,---,0.58,0.00,VWS V14.01,2013-08-13 09:48:00,
2013-08-13 05:50:00,74.7,73.5,29.93,South,188,0.0,0.0,96,0.01,,---,0.58,0.00,VWS V14.01,2013-08-13 09:50:00,
2013-08-13 05:53:00,74.7,73.5,29.93,South,188,0.0,0.0,96,0.00,,---,0.58,0.00,VWS V14.01,2013-08-13 09:53:00,
2013-08-13 05:55:00,74.7,73.5,29.93,South,188,0.0,0.0,96,0.00,,---,0.58,0.00,VWS V14.01,2013-08-13 09:55:00,
2013-08-13 05:58:00,74.7,73.5,29.92,South,188,0.0,0.0,96,0.00,,---,0.58,0.00,VWS V14.01,2013-08-13 09:58:00,
2013-08-13 06:00:00,74.7,73.5,29.92,South,188,0.0,0.0,96,0.00,,---,0.58,0.00,VWS V14.01,2013-08-13 10:00:00,
2013-08-13 06:03:00,74.7,73.5,29.92,South,188,0.0,0.0,96,0.00,,---,0.58,0.00,VWS V14.01,2013-08-13 10:03:00,
2013-08-13 06:04:00,74.7,73.5,29.92,South,188,0.0,0.0,96,0.00,,---,0.58,0.00,VWS V14.01,2013-08-13 10:04:00,
2013-08-13 06:05:00,74.7,73.5,29.92,South,188,0.0,0.0,96,0.00,,---,0.58,0.00,VWS V14.01,2013-08-13 10:05:00,
2013-08-13 06:09:00,74.7,73.5,29.92,South,188,0.0,0.0,96,0.00,,---,0.58,0.00,VWS V14.01,2013-08-13 10:09:00,
2013-08-13 06:14:00,74.7,73.5,29.92,South,188,0.0,0.0,96,0.00,,---,0.58,0.00,VWS V14.01,2013-08-13 10:14:00,
2013-08-13 06:15:00,74.7,73.5,29.92,South,188,0.0,0.0,96,0.00,,---,0.58,0.00,VWS V14.01,2013-08-13 10:15:00,
2013-08-13 06:19:00,74.7,73.5,29.93,South,188,0.0,0.0,96,0.00,,---,0.58,0.00,VWS V14.01,2013-08-13 10:19:00,
2013-08-13 06:20:00,74.7,73.5,29.93,South,188,0.0,0.0,96,0.00,,---,0.58,0.00,VWS V14.01,2013-08-13 10:20:00,
2013-08-13 06:24:00,74.7,73.5,29.93,South,188,0.0,1.0,96,0.00,,---,0.58,0.00,VWS V14.01,2013-08-13 10:24:00,
2013-08-13 06:25:00,74.6,73.4,29.93,South,188,0.0,1.0,96,0.00,,---,0.58,0.00,VWS V14.01,2013-08-13 10:25:00,
2013-08-13 06:30:00,74.6,73.4,29.93,South,188,0.0,0.0,96,0.00,,---,0.58,0.00,VWS V14.01,2013-08-13 10:30:00,
2013-08-13 06:35:00,74.6,73.4,29.94,South,188,0.0,0.0,96,0.00,,---,0.58,0.00,VWS V14.01,2013-08-13 10:35:00,
2013-08-13 06:40:00,74.6,73.4,29.93,South,188,0.0,0.0,96,0.00,,---,0.58,0.00,VWS V14.01,2013-08-13 10:40:00,
2013-08-13 06:45:00,74.6,73.4,29.93,South,188,0.0,0.0,96,0.00,,---,0.58,0.00,VWS V14.01,2013-08-13 10:45:00,
2013-08-13 06:50:00,74.5,73.3,29.94,South,188,0.0,0.0,96,0.00,,---,0.58,0.00,VWS V14.01,2013-08-13 10:50:00,
2013-08-13 06:55:00,74.5,73.3,29.93,South,188,0.0,0.0,96,0.00,,---,0.58,0.00,VWS V14.01,2013-08-13 10:55:00,
2013-08-13 07:00:00,74.4,73.2,29.93,South,188,0.0,0.0,96,0.00,,---,0.58,5.00,VWS V14.01,2013-08-13 11:00:00,
2013-08-13 07:01:00,74.4,73.2,29.93,South,188,0.0,0.0,96,0.00,,---,0.58,5.00,VWS V14.01,2013-08-13 11:01:00,
2013-08-13 07:05:00,74.4,73.2,29.93,South,188,0.0,0.0,96,0.00,,---,0.58,7.00,VWS V14.01,2013-08-13 11:05:00,
2013-08-13 07:06:00,74.4,73.2,29.93,South,188,0.0,0.0,96,0.00,,---,0.58,7.00,VWS V14.01,2013-08-13 11:06:00,
2013-08-13 07:10:00,74.4,73.2,29.93,South,188,0.0,0.0,96,0.00,,---,0.58,11.00,VWS V14.01,2013-08-13 11:10:00,
2013-08-13 07:11:00,74.4,73.2,29.93,South,188,0.0,0.0,96,0.00,,---,0.58,11.00,VWS V14.01,2013-08-13 11:11:00,
2013-08-13 07:15:00,74.4,73.2,29.93,South,188,0.0,0.0,96,0.00,,---,0.58,16.00,VWS V14.01,2013-08-13 11:15:00,
2013-08-13 07:16:00,74.3,73.1,29.93,South,188,0.0,0.0,96,0.00,,---,0.58,16.00,VWS V14.01,2013-08-13 11:16:00,
2013-08-13 07:19:00,74.3,73.1,29.93,South,188,0.0,0.0,96,0.00,,---,0.58,19.00,VWS V14.01,2013-08-13 11:19:00,
2013-08-13 07:20:00,74.3,73.1,29.93,South,188,0.0,0.0,96,0.00,,---,0.58,19.00,VWS V14.01,2013-08-13 11:20:00,
2013-08-13 07:25:00,74.4,73.2,29.93,South,188,0.0,0.0,96,0.00,,---,0.58,21.00,VWS V14.01,2013-08-13 11:25:00,
2013-08-13 07:30:00,74.4,73.2,29.93,South,188,0.0,0.0,96,0.00,,---,0.58,26.00,VWS V14.01,2013-08-13 11:30:00,
2013-08-13 07:35:00,74.4,73.2,29.94,South,188,0.0,0.0,96,0.00,,---,0.58,37.00,VWS V14.01,2013-08-13 11:35:00,
2013-08-13 07:40:00,74.5,73.6,29.94,South,188,0.0,0.0,97,0.00,,---,0.58,47.00,VWS V14.01,2013-08-13 11:40:00,
2013-08-13 07:45:00,74.6,73.7,29.94,South,188,0.0,0.0,97,0.00,,---,0.58,46.00,VWS V14.01,2013-08-13 11:45:00,
2013-08-13 07:50:00,74.7,73.8,29.94,South,188,0.0,0.0,97,0.00,,---,0.58,47.00,VWS V14.01,2013-08-13 11:50:00,
2013-08-13 07:55:00,74.9,74.0,29.94,South,188,0.0,1.0,97,0.00,,---,0.58,49.00,VWS V14.01,2013-08-13 11:55:00,
2013-08-13 08:00:00,75.1,74.2,29.94,South,188,0.0,0.0,97,0.00,,---,0.58,54.00,VWS V14.01,2013-08-13 12:00:00,
2013-08-13 08:05:00,75.3,74.4,29.95,South,188,0.0,0.0,97,0.00,,---,0.58,158.00,VWS V14.01,2013-08-13 12:05:00,
2013-08-13 08:10:00,75.5,74.6,29.95,South,188,0.0,1.0,97,0.00,,---,0.58,178.00,VWS V14.01,2013-08-13 12:10:00,
2013-08-13 08:11:00,75.6,74.7,29.95,South,188,0.0,0.0,97,0.00,,---,0.58,178.00,VWS V14.01,2013-08-13 12:11:00,
2013-08-13 08:16:00,75.8,74.9,29.95,SSW,201,0.0,0.0,97,0.00,,---,0.58,204.00,VWS V14.01,2013-08-13 12:16:00,
2013-08-13 08:20:00,75.9,75.0,29.95,SSW,203,0.0,1.0,97,0.00,,---,0.58,216.00,VWS V14.01,2013-08-13 12:20:00,
2013-08-13 08:21:00,76.0,75.1,29.95,SSW,203,0.0,0.0,97,0.00,,---,0.58,218.00,VWS V14.01,2013-08-13 12:21:00,
2013-08-13 08:26:00,76.3,75.4,29.96,SW,219,0.0,0.0,97,0.00,,---,0.58,239.00,VWS V14.01,2013-08-13 12:26:00,
2013-08-13 08:30:00,76.4,75.5,29.96,SW,232,3.0,7.0,97,0.00,,---,0.58,255.00,VWS V14.01,2013-08-13 12:30:00,
2013-08-13 08:31:00,76.5,75.6,29.96,SW,232,0.0,4.0,97,0.00,,---,0.58,258.00,VWS V14.01,2013-08-13 12:31:00,
2013-08-13 08:35:00,76.6,75.7,29.96,SW,232,0.0,4.0,97,0.00,,---,0.58,279.00,VWS V14.01,2013-08-13 12:35:00,
2013-08-13 08:36:00,76.7,75.8,29.96,SW,232,0.0,0.0,97,0.00,,---,0.58,283.00,VWS V14.01,2013-08-13 12:36:00,
2013-08-13 08:40:00,76.9,76.0,29.96,SW,232,4.0,4.0,97,0.00,,---,0.58,294.00,VWS V14.01,2013-08-13 12:40:00,
2013-08-13 08:41:00,76.9,76.0,29.96,SW,232,0.0,4.0,97,0.00,,---,0.58,297.00,VWS V14.01,2013-08-13 12:41:00,
2013-08-13 08:45:00,77.0,76.1,29.96,SW,232,0.0,4.0,97,0.00,,---,0.58,311.00,VWS V14.01,2013-08-13 12:45:00,
2013-08-13 08:47:00,77.1,76.2,29.96,SW,232,4.0,7.0,97,0.00,,---,0.58,322.00,VWS V14.01,2013-08-13 12:47:00,
2013-08-13 08:52:00,77.2,76.3,29.96,WSW,239,6.0,6.0,97,0.00,,---,0.58,338.00,VWS V14.01,2013-08-13 12:52:00,
2013-08-13 08:55:00,77.3,76.1,29.96,WSW,240,1.0,8.0,96,0.00,,---,0.58,359.00,VWS V14.01,2013-08-13 12:55:00,
2013-08-13 08:57:00,77.3,76.4,29.96,WSW,242,5.0,8.0,97,0.00,,---,0.58,364.00,VWS V14.01,2013-08-13 12:57:00,
2013-08-13 09:00:00,77.5,76.3,29.96,WSW,241,4.0,8.0,96,0.00,,---,0.58,376.00,VWS V14.01,2013-08-13 13:00:00,
2013-08-13 09:02:00,77.6,76.4,29.96,WSW,244,4.0,8.0,96,0.00,,---,0.58,385.00,VWS V14.01,2013-08-13 13:02:00,
2013-08-13 09:05:00,77.9,76.7,29.96,WSW,238,4.0,9.0,96,0.00,,---,0.58,399.00,VWS V14.01,2013-08-13 13:05:00,
2013-08-13 09:07:00,78.1,76.9,29.96,WSW,240,3.0,9.0,96,0.00,,---,0.58,406.00,VWS V14.01,2013-08-13 13:07:00,
2013-08-13 09:10:00,78.3,76.8,29.96,WSW,245,7.0,9.0,95,0.00,,---,0.58,422.00,VWS V14.01,2013-08-13 13:10:00,
2013-08-13 09:12:00,78.5,76.9,29.96,WSW,244,4.0,8.0,95,0.00,,---,0.58,427.00,VWS V14.01,2013-08-13 13:12:00,
2013-08-13 09:18:00,79.0,76.8,29.96,SW,234,4.0,7.0,93,0.00,,---,0.58,450.00,VWS V14.01,2013-08-13 13:18:00,
2013-08-13 09:20:00,79.2,77.0,29.96,WSW,240,5.0,7.0,93,0.00,,---,0.58,455.00,VWS V14.01,2013-08-13 13:20:00,
2013-08-13 09:23:00,79.4,76.9,29.96,WSW,243,3.0,8.0,92,0.00,,---,0.58,469.00,VWS V14.01,2013-08-13 13:23:00,
2013-08-13 09:25:00,79.6,77.1,29.96,WSW,245,7.0,8.0,92,0.00,,---,0.58,480.00,VWS V14.01,2013-08-13 13:25:00,
2013-08-13 09:28:00,79.9,77.0,29.96,WSW,246,7.0,7.0,91,0.00,,---,0.58,496.00,VWS V14.01,2013-08-13 13:28:00,
2013-08-13 09:30:00,80.1,77.2,29.96,WSW,246,4.0,8.0,91,0.00,,---,0.58,508.00,VWS V14.01,2013-08-13 13:30:00,
2013-08-13 09:33:00,80.3,77.1,29.96,WSW,252,5.0,9.0,90,0.00,,---,0.58,522.00,VWS V14.01,2013-08-13 13:33:00,
2013-08-13 09:35:00,80.5,77.3,29.96,WSW,251,5.0,9.0,90,0.00,,---,0.58,487.00,VWS V14.01,2013-08-13 13:35:00,
2013-08-13 09:38:00,80.7,77.2,29.96,WSW,239,0.0,8.0,89,0.00,,---,0.58,513.00,VWS V14.01,2013-08-13 13:38:00,
2013-08-13 09:40:00,80.9,77.4,29.96,WSW,239,0.0,8.0,89,0.00,,---,0.58,519.00,VWS V14.01,2013-08-13 13:40:00,
2013-08-13 09:43:00,81.2,78.0,29.96,WSW,240,0.0,1.0,90,0.00,,---,0.58,422.00,VWS V14.01,2013-08-13 13:43:00,
2013-08-13 09:45:00,81.3,77.8,29.96,WSW,240,0.0,1.0,89,0.00,,---,0.58,483.00,VWS V14.01,2013-08-13 13:45:00,
2013-08-13 09:48:00,81.5,77.6,29.96,WSW,248,0.0,5.0,88,0.00,,---,0.58,526.00,VWS V14.01,2013-08-13 13:48:00,
2013-08-13 09:50:00,81.6,77.7,29.96,WSW,244,2.0,7.0,88,0.00,,---,0.58,411.00,VWS V14.01,2013-08-13 13:50:00,
2013-08-13 09:54:00,81.9,77.7,29.96,WSW,240,8.0,9.0,87,0.00,,---,0.58,534.00,VWS V14.01,2013-08-13 13:54:00,
2013-08-13 09:55:00,82.0,77.4,29.96,WSW,248,0.0,9.0,86,0.00,,---,0.58,555.00,VWS V14.01,2013-08-13 13:55:00,
2013-08-13 09:59:00,82.3,77.7,29.96,WSW,246,4.0,9.0,86,0.00,,---,0.58,454.00,VWS V14.01,2013-08-13 13:59:00,
2013-08-13 10:00:00,82.4,77.8,29.96,WSW,246,0.0,9.0,86,0.00,,---,0.58,415.00,VWS V14.01,2013-08-13 14:00:00,
2013-08-13 10:04:00,82.7,77.7,29.97,West,279,7.0,10.0,85,0.00,,---,0.58,668.00,VWS V14.01,2013-08-13 14:04:00,
2013-08-13 10:05:00,82.7,77.7,29.96,West,280,0.0,10.0,85,0.00,,---,0.58,508.00,VWS V14.01,2013-08-13 14:05:00,
2013-08-13 10:09:00,83.0,77.7,29.96,West,272,4.0,8.0,84,0.00,,---,0.58,538.00,VWS V14.01,2013-08-13 14:09:00,
2013-08-13 10:10:00,83.1,77.8,29.96,West,271,6.0,8.0,84,0.00,,---,0.58,517.00,VWS V14.01,2013-08-13 14:10:00,
2013-08-13 10:14:00,83.3,77.6,29.96,WSW,248,5.0,8.0,83,0.00,,---,0.58,534.00,VWS V14.01,2013-08-13 14:14:00,
2013-08-13 10:15:00,83.3,78.0,29.96,WSW,257,4.0,8.0,84,0.00,,---,0.58,545.00,VWS V14.01,2013-08-13 14:15:00,
2013-08-13 10:19:00,83.6,77.5,29.96,WSW,244,9.0,10.0,82,0.00,,---,0.58,555.00,VWS V14.01,2013-08-13 14:19:00,
2013-08-13 10:20:00,83.6,77.9,29.96,West,262,6.0,10.0,83,0.00,,---,0.58,585.00,VWS V14.01,2013-08-13 14:20:00,
2013-08-13 10:24:00,83.8,77.7,29.96,SW,232,4.0,9.0,82,0.00,,---,0.58,564.00,VWS V14.01,2013-08-13 14:24:00,
2013-08-13 10:25:00,83.8,77.7,29.96,SW,232,5.0,9.0,82,0.00,,---,0.58,585.00,VWS V14.01,2013-08-13 14:25:00,
2013-08-13 10:30:00,84.0,77.9,29.97,WSW,240,5.0,9.0,82,0.00,,---,0.58,636.00,VWS V14.01,2013-08-13 14:30:00,
2013-08-13 10:35:00,84.2,78.1,29.97,WSW,238,6.0,11.0,82,0.00,,---,0.58,592.00,VWS V14.01,2013-08-13 14:35:00,
2013-08-13 10:40:00,84.5,78.0,29.97,SW,236,4.0,10.0,81,0.00,,---,0.58,643.00,VWS V14.01,2013-08-13 14:40:00,
2013-08-13 10:45:00,84.8,78.7,29.96,SW,226,6.0,11.0,82,0.00,,---,0.58,612.00,VWS V14.01,2013-08-13 14:45:00,
2013-08-13 10:50:00,85.1,77.9,29.96,SW,229,4.0,11.0,79,0.00,,---,0.58,548.00,VWS V14.01,2013-08-13 14:50:00,
2013-08-13 10:55:00,85.2,78.3,29.96,WSW,238,10.0,11.0,80,0.00,,---,0.58,543.00,VWS V14.01,2013-08-13 14:55:00,
2013-08-13 11:00:00,85.2,77.9,29.95,WSW,248,8.0,11.0,79,0.00,,---,0.58,471.00,VWS V14.01,2013-08-13 15:00:00,
2013-08-13 11:05:00,85.1,77.9,29.95,WSW,252,7.0,10.0,79,0.00,,---,0.58,541.00,VWS V14.01,2013-08-13 15:05:00,
2013-08-13 11:10:00,85.2,78.3,29.95,SW,234,2.0,8.0,80,0.00,,---,0.58,475.00,VWS V14.01,2013-08-13 15:10:00,
2013-08-13 11:15:00,85.2,77.9,29.95,SW,223,4.0,4.0,79,0.00,,---,0.58,475.00,VWS V14.01,2013-08-13 15:15:00,
2013-08-13 11:20:00,85.3,78.1,29.95,WSW,238,4.0,6.0,79,0.00,,---,0.58,570.00,VWS V14.01,2013-08-13 15:20:00,
2013-08-13 11:25:00,85.3,78.1,29.95,WSW,238,8.0,11.0,79,0.00,,---,0.58,617.00,VWS V14.01,2013-08-13 15:25:00,
2013-08-13 11:26:00,85.4,78.2,29.95,SW,227,6.0,10.0,79,0.00,,---,0.58,617.00,VWS V14.01,2013-08-13 15:26:00,
2013-08-13 11:30:00,85.5,78.2,29.95,WSW,242,4.0,10.0,79,0.00,,---,0.58,626.00,VWS V14.01,2013-08-13 15:30:00,
2013-08-13 11:31:00,85.5,78.2,29.95,WSW,244,3.0,8.0,79,0.00,,---,0.58,626.00,VWS V14.01,2013-08-13 15:31:00,
2013-08-13 11:35:00,85.6,78.3,29.95,WSW,250,5.0,10.0,79,0.00,,---,0.58,856.00,VWS V14.01,2013-08-13 15:35:00,
2013-08-13 11:36:00,85.7,78.4,29.95,WSW,255,3.0,7.0,79,0.00,,---,0.58,868.00,VWS V14.01,2013-08-13 15:36:00,
2013-08-13 11:40:00,85.9,78.6,29.95,WSW,257,5.0,10.0,79,0.00,,---,0.58,881.00,VWS V14.01,2013-08-13 15:40:00,
2013-08-13 11:41:00,85.9,78.6,29.95,WSW,253,2.0,7.0,79,0.00,,---,0.58,875.00,VWS V14.01,2013-08-13 15:41:00,
2013-08-13 11:45:00,86.2,78.2,29.95,WSW,239,4.0,13.0,77,0.00,,---,0.58,881.00,VWS V14.01,2013-08-13 15:45:00,
2013-08-13 11:46:00,86.3,78.6,29.94,WSW,242,8.0,10.0,78,0.00,,---,0.58,882.00,VWS V14.01,2013-08-13 15:46:00,
2013-08-13 11:50:00,86.5,78.4,29.94,SW,223,9.0,11.0,77,0.00,,---,0.58,921.00,VWS V14.01,2013-08-13 15:50:00,
2013-08-13 11:51:00,86.5,78.4,29.94,SSW,204,6.0,10.0,77,0.00,,---,0.58,925.00,VWS V14.01,2013-08-13 15:51:00,
2013-08-13 11:55:00,86.9,79.6,29.95,SW,227,6.0,10.0,79,0.00,,---,0.58,925.00,VWS V14.01,2013-08-13 15:55:00,
2013-08-13 11:56:00,87.0,78.9,29.94,SW,229,3.0,7.0,77,0.00,,---,0.58,958.00,VWS V14.01,2013-08-13 15:56:00,
2013-08-13 12:00:00,87.3,80.0,29.94,SW,220,0.0,7.0,79,0.00,,---,0.58,1011.00,VWS V14.01,2013-08-13 16:00:00,
2013-08-13 12:02:00,87.4,80.1,29.94,SW,222,6.0,8.0,79,0.00,,---,0.58,956.00,VWS V14.01,2013-08-13 16:02:00,
2013-08-13 12:05:00,87.7,80.0,29.94,SW,235,1.0,10.0,78,0.00,,---,0.58,949.00,VWS V14.01,2013-08-13 16:05:00,
2013-08-13 12:07:00,87.8,80.5,29.94,WSW,254,8.0,10.0,79,0.00,,---,0.58,933.00,VWS V14.01,2013-08-13 16:07:00,
2013-08-13 12:10:00,88.0,79.9,29.94,SW,236,7.0,11.0,77,0.00,,---,0.58,960.00,VWS V14.01,2013-08-13 16:10:00,
2013-08-13 12:12:00,88.0,79.5,29.94,SSW,210,8.0,9.0,76,0.00,,---,0.58,963.00,VWS V14.01,2013-08-13 16:12:00,
2013-08-13 12:15:00,88.2,79.3,29.94,SW,224,5.0,11.0,75,0.00,,---,0.58,939.00,VWS V14.01,2013-08-13 16:15:00,
2013-08-13 12:17:00,88.1,79.2,29.94,SW,236,5.0,9.0,75,0.00,,---,0.58,977.00,VWS V14.01,2013-08-13 16:17:00,
2013-08-13 12:20:00,88.1,79.2,29.94,SW,229,8.0,9.0,75,0.00,,---,0.58,907.00,VWS V14.01,2013-08-13 16:20:00,
2013-08-13 12:22:00,88.1,79.2,29.93,SSW,211,5.0,11.0,75,0.00,,---,0.58,940.00,VWS V14.01,2013-08-13 16:22:00,
2013-08-13 12:25:00,88.2,79.7,29.93,SW,233,5.0,11.0,76,0.00,,---,0.58,967.00,VWS V14.01,2013-08-13 16:25:00,
2013-08-13 12:28:00,88.2,79.3,29.93,West,259,9.0,10.0,75,0.00,,---,0.58,979.00,VWS V14.01,2013-08-13 16:28:00,
2013-08-13 12:30:00,88.2,80.1,29.93,SSW,209,9.0,10.0,77,0.00,,---,0.58,974.00,VWS V14.01,2013-08-13 16:30:00,
2013-08-13 12:33:00,88.3,79.4,29.93,SSW,212,4.0,11.0,75,0.00,,---,0.58,954.00,VWS V14.01,2013-08-13 16:33:00,
2013-08-13 12:35:00,88.4,79.9,29.93,SW,215,3.0,11.0,76,0.00,,---,0.58,946.00,VWS V14.01,2013-08-13 16:35:00,
2013-08-13 12:38:00,88.6,80.9,29.92,SSW,213,0.0,5.0,78,0.00,,---,0.58,1018.00,VWS V14.01,2013-08-13 16:38:00,
2013-08-13 12:40:00,88.8,79.9,29.92,SSW,211,3.0,12.0,75,0.00,,---,0.58,953.00,VWS V14.01,2013-08-13 16:40:00,
2013-08-13 12:43:00,89.1,79.7,29.92,SW,218,3.0,7.0,74,0.00,,---,0.58,967.00,VWS V14.01,2013-08-13 16:43:00,
2013-08-13 12:45:00,89.1,79.7,29.92,WSW,242,5.0,9.0,74,0.00,,---,0.58,967.00,VWS V14.01,2013-08-13 16:45:00,
2013-08-13 12:48:00,89.3,80.7,29.92,SW,234,9.0,9.0,76,0.00,,---,0.58,909.00,VWS V14.01,2013-08-13 16:48:00,
2013-08-13 12:50:00,89.3,79.5,29.92,WSW,238,6.0,11.0,73,0.00,,---,0.58,937.00,VWS V14.01,2013-08-13 16:50:00,
2013-08-13 12:54:00,89.2,80.2,29.92,WSW,248,4.0,8.0,75,0.00,,---,0.58,942.00,VWS V14.01,2013-08-13 16:54:00,
2013-08-13 12:55:00,89.3,79.9,29.92,SW,217,7.0,9.0,74,0.00,,---,0.58,970.00,VWS V14.01,2013-08-13 16:55:00,
2013-08-13 12:59:00,89.4,80.0,29.92,SSW,213,4.0,7.0,74,0.00,,---,0.58,248.00,VWS V14.01,2013-08-13 16:59:00,
2013-08-13 13:00:00,89.4,79.6,29.92,SSW,211,4.0,7.0,73,0.00,,---,0.58,283.00,VWS V14.01,2013-08-13 17:00:00,
2013-08-13 13:04:00,89.6,80.6,29.91,SSW,196,5.0,9.0,75,0.00,,---,0.58,977.00,VWS V14.01,2013-08-13 17:04:00,
2013-08-13 13:05:00,89.6,80.2,29.91,SSW,202,4.0,9.0,74,0.00,,---,0.58,977.00,VWS V14.01,2013-08-13 17:05:00,
2013-08-13 13:10:00,89.8,81.2,29.92,SSW,211,6.0,11.0,76,0.00,,---,0.58,954.00,VWS V14.01,2013-08-13 17:10:00,
2013-08-13 13:12:00,90.0,81.0,29.91,SW,232,5.0,9.0,75,0.00,,---,0.58,958.00,VWS V14.01,2013-08-13 17:12:00,
2013-08-13 13:15:00,90.2,80.4,29.91,SSW,213,6.0,9.0,73,0.00,,---,0.58,965.00,VWS V14.01,2013-08-13 17:15:00,
2013-08-13 13:17:00,90.4,80.6,29.91,SW,214,4.0,8.0,73,0.00,,---,0.58,995.00,VWS V14.01,2013-08-13 17:17:00,
2013-08-13 13:20:00,90.6,80.8,29.91,SW,222,5.0,8.0,73,0.00,,---,0.58,972.00,VWS V14.01,2013-08-13 17:20:00,
2013-08-13 13:22:00,90.8,80.1,29.91,SSW,211,5.0,9.0,71,0.00,,---,0.58,953.00,VWS V14.01,2013-08-13 17:22:00,
2013-08-13 13:25:00,91.0,81.1,29.91,SW,220,7.0,9.0,73,0.00,,---,0.58,1020.00,VWS V14.01,2013-08-13 17:25:00,
2013-08-13 13:28:00,91.1,80.8,29.91,SSW,210,0.0,9.0,72,0.00,,---,0.58,279.00,VWS V14.01,2013-08-13 17:28:00,
2013-08-13 13:30:00,91.3,81.8,29.91,WSW,238,8.0,9.0,74,0.00,,---,0.58,972.00,VWS V14.01,2013-08-13 17:30:00,
2013-08-13 13:33:00,91.4,80.2,29.90,WSW,238,8.0,12.0,70,0.00,,---,0.58,1025.00,VWS V14.01,2013-08-13 17:33:00,
2013-08-13 13:35:00,91.5,80.3,29.90,WSW,238,5.0,12.0,70,0.00,,---,0.58,1093.00,VWS V14.01,2013-08-13 17:35:00,
2013-08-13 13:38:00,91.5,80.3,29.90,SW,228,3.0,12.0,70,0.00,,---,0.58,392.00,VWS V14.01,2013-08-13 17:38:00,
2013-08-13 13:40:00,91.4,79.8,29.90,WSW,252,8.0,12.0,69,0.00,,---,0.58,392.00,VWS V14.01,2013-08-13 17:40:00,
2013-08-13 13:43:00,91.2,80.1,29.90,WSW,238,13.0,15.0,70,0.00,,---,0.58,392.00,VWS V14.01,2013-08-13 17:43:00,
2013-08-13 13:45:00,91.2,79.6,29.90,WSW,242,8.0,15.0,69,0.00,,---,0.58,1025.00,VWS V14.01,2013-08-13 17:45:00,
2013-08-13 13:48:00,91.1,79.5,29.90,WSW,242,6.0,12.0,69,0.00,,---,0.58,1044.00,VWS V14.01,2013-08-13 17:48:00,
2013-08-13 13:50:00,91.2,79.6,29.90,SSW,211,5.0,12.0,69,0.00,,---,0.58,1044.00,VWS V14.01,2013-08-13 17:50:00,
2013-08-13 13:53:00,91.4,80.2,29.89,SW,222,5.0,10.0,70,0.00,,---,0.58,991.00,VWS V14.01,2013-08-13 17:53:00,
2013-08-13 13:55:00,91.5,80.8,29.90,SW,216,4.0,10.0,71,0.00,,---,0.58,1011.00,VWS V14.01,2013-08-13 17:55:00,
2013-08-13 13:58:00,91.7,80.5,29.89,SW,223,0.0,7.0,70,0.00,,---,0.58,1072.00,VWS V14.01,2013-08-13 17:58:00,
2013-08-13 14:00:00,91.9,81.6,29.89,WSW,238,6.0,9.0,72,0.00,,---,0.58,1093.00,VWS V14.01,2013-08-13 18:00:00,
2013-08-13 14:04:00,92.1,80.9,29.89,SW,218,6.0,10.0,70,0.00,,---,0.58,1093.00,VWS V14.01,2013-08-13 18:04:00,
2013-08-13 14:05:00,92.2,80.6,29.89,SSW,203,9.0,14.0,69,0.00,,---,0.58,1078.00,VWS V14.01,2013-08-13 18:05:00,
2013-08-13 14:09:00,92.5,79.9,29.89,SW,218,5.0,10.0,67,0.00,,---,0.58,1048.00,VWS V14.01,2013-08-13 18:09:00,
2013-08-13 14:10:00,92.5,80.4,29.89,SW,222,0.0,10.0,68,0.00,,---,0.58,401.00,VWS V14.01,2013-08-13 18:10:00,
2013-08-13 14:14:00,92.5,79.9,29.89,WSW,244,11.0,12.0,67,0.00,,---,0.58,359.00,VWS V14.01,2013-08-13 18:14:00,
2013-08-13 14:15:00,92.4,79.4,29.89,WSW,246,12.0,15.0,66,0.00,,---,0.58,397.00,VWS V14.01,2013-08-13 18:15:00,
2013-08-13 14:19:00,92.0,79.9,29.89,SW,231,0.0,12.0,68,0.00,,---,0.58,408.00,VWS V14.01,2013-08-13 18:19:00,
2013-08-13 14:20:00,91.9,80.3,29.89,SW,229,0.0,12.0,69,0.00,,---,0.58,413.00,VWS V14.01,2013-08-13 18:20:00,
2013-08-13 14:24:00,91.9,79.8,29.88,SSW,210,0.0,10.0,68,0.00,,---,0.58,1035.00,VWS V14.01,2013-08-13 18:24:00,
2013-08-13 14:25:00,91.9,79.4,29.89,West,268,7.0,10.0,67,0.00,,---,0.58,172.00,VWS V14.01,2013-08-13 18:25:00,
2013-08-13 14:29:00,91.4,78.9,29.90,West,277,2.0,12.0,67,0.00,,---,0.58,102.00,VWS V14.01,2013-08-13 18:29:00,
2013-08-13 14:30:00,91.1,79.5,29.90,WNW,299,2.0,12.0,69,0.00,,---,0.58,98.00,VWS V14.01,2013-08-13 18:30:00,
2013-08-13 14:34:00,89.1,76.7,29.90,WNW,286,12.0,18.0,67,0.00,,---,0.58,107.00,VWS V14.01,2013-08-13 18:34:00,
2013-08-13 14:35:00,88.6,76.2,29.90,West,273,14.0,18.0,67,0.00,,---,0.58,107.00,VWS V14.01,2013-08-13 18:35:00,
2013-08-13 14:40:00,85.7,75.2,29.89,WNW,284,7.0,16.0,71,0.00,,---,0.58,128.00,VWS V14.01,2013-08-13 18:40:00,
2013-08-13 14:45:00,82.6,73.5,29.89,NW,309,9.0,19.0,74,0.03,,---,0.61,83.00,VWS V14.01,2013-08-13 18:45:00,
2013-08-13 14:50:00,79.9,72.8,29.89,North,5,9.0,19.0,79,0.06,,---,0.64,39.00,VWS V14.01,2013-08-13 18:50:00,
2013-08-13 14:55:00,78.5,72.9,29.90,NNW,336,0.0,6.0,83,0.09,,---,0.67,30.00,VWS V14.01,2013-08-13 18:55:00,
2013-08-13 15:00:00,77.6,73.4,29.91,West,279,6.0,19.0,87,0.25,,---,0.83,33.00,VWS V14.01,2013-08-13 19:00:00,
2013-08-13 15:04:00,77.1,73.3,29.90,WNW,295,0.0,11.0,88,0.38,,---,0.96,69.00,VWS V14.01,2013-08-13 19:04:00,
2013-08-13 15:05:00,77.1,73.6,29.89,NNE,13,0.0,11.0,89,0.41,,---,0.99,69.00,VWS V14.01,2013-08-13 19:05:00,
2013-08-13 15:09:00,76.9,73.8,29.88,NNE,13,0.0,0.0,90,0.42,,---,1.00,158.00,VWS V14.01,2013-08-13 19:09:00,
2013-08-13 15:10:00,76.8,73.7,29.88,NNE,13,0.0,0.0,90,0.42,,---,1.00,179.00,VWS V14.01,2013-08-13 19:10:00,
2013-08-13 15:14:00,76.8,74.0,29.88,NNE,13,0.0,0.0,91,0.42,,---,1.00,279.00,VWS V14.01,2013-08-13 19:14:00,
2013-08-13 15:15:00,76.9,74.1,29.88,NNE,13,0.0,0.0,91,0.42,,---,1.00,302.00,VWS V14.01,2013-08-13 19:15:00,
2013-08-13 15:19:00,77.1,74.6,29.88,NNE,13,0.0,0.0,92,0.42,,---,1.00,494.00,VWS V14.01,2013-08-13 19:19:00,
2013-08-13 15:20:00,77.3,75.1,29.87,NNE,13,0.0,0.0,93,0.42,,---,1.00,522.00,VWS V14.01,2013-08-13 19:20:00,
2013-08-13 15:24:00,77.7,75.8,29.87,NNE,13,0.0,0.0,94,0.42,,---,1.00,940.00,VWS V14.01,2013-08-13 19:24:00,
2013-08-13 15:25:00,77.8,75.9,29.87,NNE,13,0.0,0.0,94,0.42,,---,1.00,984.00,VWS V14.01,2013-08-13 19:25:00,
2013-08-13 15:29:00,78.6,76.7,29.87,NNE,13,0.0,1.0,94,0.42,,---,1.00,944.00,VWS V14.01,2013-08-13 19:29:00,
2013-08-13 15:30:00,78.7,76.8,29.87,NNE,13,0.0,1.0,94,0.42,,---,1.00,944.00,VWS V14.01,2013-08-13 19:30:00,
2013-08-13 15:35:00,79.6,77.7,29.86,NNE,13,0.0,0.0,94,0.42,,---,1.00,1016.00,VWS V14.01,2013-08-13 19:35:00,
2013-08-13 15:40:00,80.6,79.0,29.86,NW,304,3.0,3.0,95,0.42,,---,1.00,1013.00,VWS V14.01,2013-08-13 19:40:00,
2013-08-13 15:45:00,81.6,79.7,29.86,WSW,242,3.0,7.0,94,0.42,,---,1.00,1016.00,VWS V14.01,2013-08-13 19:45:00,
2013-08-13 15:50:00,82.7,80.1,29.86,WSW,242,1.0,5.0,92,0.39,,---,1.00,926.00,VWS V14.01,2013-08-13 19:50:00,
2013-08-13 15:55:00,83.4,80.2,29.85,WSW,243,0.0,4.0,90,0.36,,---,1.00,842.00,VWS V14.01,2013-08-13 19:55:00,
2013-08-13 16:00:00,84.5,80.9,29.85,WSW,240,0.0,0.0,89,0.33,,---,1.00,772.00,VWS V14.01,2013-08-13 20:00:00,
2013-08-13 16:05:00,85.7,81.0,29.85,SW,224,3.0,3.0,86,0.01,,---,1.00,756.00,VWS V14.01,2013-08-13 20:05:00,
2013-08-13 16:10:00,86.8,82.1,29.84,SW,225,0.0,0.0,86,0.00,,---,1.00,759.00,VWS V14.01,2013-08-13 20:10:00,
2013-08-13 16:15:00,87.7,81.2,29.84,SW,223,0.0,1.0,81,0.00,,---,1.00,550.00,VWS V14.01,2013-08-13 20:15:00,
2013-08-13 16:16:00,87.8,81.2,29.85,SW,223,0.0,0.0,81,0.00,,---,1.00,550.00,VWS V14.01,2013-08-13 20:16:00,
2013-08-13 16:20:00,88.5,81.2,29.84,SW,235,4.0,7.0,79,0.00,,---,1.00,195.00,VWS V14.01,2013-08-13 20:20:00,
2013-08-13 16:21:00,88.6,81.2,29.84,SW,235,3.0,6.0,79,0.00,,---,1.00,195.00,VWS V14.01,2013-08-13 20:21:00,
2013-08-13 16:25:00,89.0,81.2,29.84,SW,235,2.0,6.0,78,0.00,,---,1.00,148.00,VWS V14.01,2013-08-13 20:25:00,
2013-08-13 16:26:00,89.1,81.7,29.84,SW,235,0.0,4.0,79,0.00,,---,1.00,148.00,VWS V14.01,2013-08-13 20:26:00,
2013-08-13 16:30:00,89.3,81.5,29.84,SW,234,3.0,4.0,78,0.00,,---,1.00,186.00,VWS V14.01,2013-08-13 20:30:00,
2013-08-13 16:31:00,89.3,81.1,29.84,SW,234,0.0,4.0,77,0.00,,---,1.00,197.00,VWS V14.01,2013-08-13 20:31:00,
2013-08-13 16:35:00,89.4,81.2,29.84,SW,234,1.0,4.0,77,0.00,,---,1.00,214.00,VWS V14.01,2013-08-13 20:35:00,
2013-08-13 16:36:00,89.4,80.8,29.83,SW,234,0.0,2.0,76,0.00,,---,1.00,155.00,VWS V14.01,2013-08-13 20:36:00,
2013-08-13 16:40:00,89.4,80.8,29.84,SW,225,4.0,5.0,76,0.00,,---,1.00,104.00,VWS V14.01,2013-08-13 20:40:00,
2013-08-13 16:41:00,89.4,80.4,29.83,SW,225,1.0,4.0,75,0.00,,---,1.00,123.00,VWS V14.01,2013-08-13 20:41:00,
2013-08-13 16:45:00,89.3,80.7,29.84,SW,226,0.0,5.0,76,0.00,,---,1.00,221.00,VWS V14.01,2013-08-13 20:45:00,
2013-08-13 16:46:00,89.4,80.8,29.83,SW,227,0.0,3.0,76,0.00,,---,1.00,759.00,VWS V14.01,2013-08-13 20:46:00,
2013-08-13 16:50:00,89.4,80.0,29.83,WSW,237,4.0,8.0,74,0.00,,---,1.00,155.00,VWS V14.01,2013-08-13 20:50:00,
2013-08-13 16:52:00,89.5,80.5,29.84,SW,225,5.0,6.0,75,0.00,,---,1.00,146.00,VWS V14.01,2013-08-13 20:52:00,
2013-08-13 16:55:00,89.5,80.1,29.83,SW,228,0.0,6.0,74,0.00,,---,1.00,213.00,VWS V14.01,2013-08-13 20:55:00,
2013-08-13 16:57:00,89.5,80.1,29.83,SW,229,0.0,0.0,74,0.00,,---,1.00,213.00,VWS V14.01,2013-08-13 20:57:00,
2013-08-13 17:00:00,89.6,80.2,29.83,SW,227,0.0,6.0,74,0.00,,---,1.00,691.00,VWS V14.01,2013-08-13 21:00:00,
2013-08-13 17:02:00,89.8,80.4,29.83,SW,232,4.0,6.0,74,0.00,,---,1.00,633.00,VWS V14.01,2013-08-13 21:02:00,
2013-08-13 17:05:00,90.1,80.3,29.84,SW,217,6.0,8.0,73,0.00,,---,1.00,577.00,VWS V14.01,2013-08-13 21:05:00,
2013-08-13 17:07:00,90.3,80.1,29.84,SSW,207,8.0,8.0,72,0.00,,---,1.00,153.00,VWS V14.01,2013-08-13 21:07:00,
2013-08-13 17:10:00,90.5,79.8,29.84,SW,221,5.0,10.0,71,0.00,,---,1.00,172.00,VWS V14.01,2013-08-13 21:10:00,
2013-08-13 17:12:00,90.6,79.5,29.84,WSW,243,4.0,9.0,70,0.00,,---,1.00,172.00,VWS V14.01,2013-08-13 21:12:00,
2013-08-13 17:15:00,90.8,79.2,29.83,WSW,238,12.0,13.0,69,0.00,,---,1.00,605.00,VWS V14.01,2013-08-13 21:15:00,
2013-08-13 17:18:00,90.8,79.2,29.83,WSW,243,4.0,13.0,69,0.00,,---,1.00,155.00,VWS V14.01,2013-08-13 21:18:00,
2013-08-13 17:20:00,90.9,78.9,29.83,WSW,246,8.0,13.0,68,0.00,,---,1.00,599.00,VWS V14.01,2013-08-13 21:20:00,
2013-08-13 17:23:00,91.1,79.1,29.83,WSW,242,0.0,8.0,68,0.00,,---,1.00,557.00,VWS V14.01,2013-08-13 21:23:00,
2013-08-13 17:25:00,91.2,79.2,29.83,SW,215,0.0,10.0,68,0.00,,---,1.00,503.00,VWS V14.01,2013-08-13 21:25:00,
2013-08-13 17:28:00,91.4,79.4,29.83,WSW,242,4.0,7.0,68,0.00,,---,1.00,476.00,VWS V14.01,2013-08-13 21:28:00,
2013-08-13 17:30:00,91.5,79.0,29.84,SW,226,4.0,9.0,67,0.00,,---,1.00,476.00,VWS V14.01,2013-08-13 21:30:00,
2013-08-13 17:33:00,91.6,79.1,29.84,WSW,241,5.0,9.0,67,0.00,,---,1.00,172.00,VWS V14.01,2013-08-13 21:33:00,
2013-08-13 17:35:00,91.5,79.0,29.84,WSW,252,4.0,11.0,67,0.00,,---,1.00,179.00,VWS V14.01,2013-08-13 21:35:00,
2013-08-13 17:38:00,91.5,79.9,29.84,WSW,248,0.0,7.0,69,0.00,,---,1.00,279.00,VWS V14.01,2013-08-13 21:38:00,
2013-08-13 17:40:00,91.4,79.4,29.84,WSW,248,5.0,9.0,68,0.00,,---,1.00,267.00,VWS V14.01,2013-08-13 21:40:00,
2013-08-13 17:43:00,91.3,78.3,29.84,SW,226,7.0,10.0,66,0.00,,---,1.00,221.00,VWS V14.01,2013-08-13 21:43:00,
2013-08-13 17:45:00,91.2,78.7,29.83,SSW,213,9.0,11.0,67,0.00,,---,1.00,221.00,VWS V14.01,2013-08-13 21:45:00,
2013-08-13 17:48:00,91.0,77.6,29.83,SW,234,5.0,11.0,65,0.00,,---,1.00,132.00,VWS V14.01,2013-08-13 21:48:00,
2013-08-13 17:50:00,91.0,78.5,29.83,SW,236,4.0,11.0,67,0.00,,---,1.00,139.00,VWS V14.01,2013-08-13 21:50:00,
2013-08-13 17:54:00,90.7,77.8,29.83,SW,229,6.0,9.0,66,0.00,,---,1.00,185.00,VWS V14.01,2013-08-13 21:54:00,
2013-08-13 17:55:00,90.5,78.1,29.83,WSW,242,10.0,10.0,67,0.00,,---,1.00,218.00,VWS V14.01,2013-08-13 21:55:00,
2013-08-13 17:59:00,90.3,77.9,29.83,SW,230,5.0,11.0,67,0.00,,---,1.00,206.00,VWS V14.01,2013-08-13 21:59:00,
2013-08-13 18:00:00,90.2,77.8,29.83,WSW,248,6.0,11.0,67,0.00,,---,1.00,223.00,VWS V14.01,2013-08-13 22:00:00,
2013-08-13 18:05:00,90.1,78.1,29.83,WSW,248,6.0,10.0,68,0.00,,---,1.00,213.00,VWS V14.01,2013-08-13 22:05:00,
2013-08-13 18:10:00,90.0,78.5,29.83,WSW,248,6.0,9.0,69,0.00,,---,1.00,299.00,VWS V14.01,2013-08-13 22:10:00,
2013-08-13 18:15:00,90.0,78.5,29.83,WSW,248,5.0,10.0,69,0.00,,---,1.00,252.00,VWS V14.01,2013-08-13 22:15:00,
2013-08-13 18:20:00,90.0,78.5,29.83,WSW,248,5.0,8.0,69,0.00,,---,1.00,348.00,VWS V14.01,2013-08-13 22:20:00,
2013-08-13 18:25:00,90.1,78.6,29.83,WSW,248,5.0,11.0,69,0.00,,---,1.00,321.00,VWS V14.01,2013-08-13 22:25:00,
2013-08-13 18:30:00,90.2,78.2,29.83,WSW,248,6.0,10.0,68,0.00,,---,1.00,292.00,VWS V14.01,2013-08-13 22:30:00,
2013-08-13 18:35:00,90.3,79.2,29.83,WSW,248,4.0,6.0,70,0.00,,---,1.00,217.00,VWS V14.01,2013-08-13 22:35:00,
2013-08-13 18:40:00,90.3,79.2,29.83,WSW,248,3.0,6.0,70,0.00,,---,1.00,165.00,VWS V14.01,2013-08-13 22:40:00,
2013-08-13 18:45:00,90.2,78.7,29.83,WSW,248,3.0,6.0,69,0.00,,---,1.00,156.00,VWS V14.01,2013-08-13 22:45:00,
2013-08-13 18:50:00,89.9,78.8,29.83,WSW,248,4.0,7.0,70,0.00,,---,1.00,200.00,VWS V14.01,2013-08-13 22:50:00,
2013-08-13 18:55:00,89.8,78.7,29.83,SW,225,4.0,6.0,70,0.00,,---,1.00,194.00,VWS V14.01,2013-08-13 22:55:00,
2013-08-13 19:00:00,89.6,78.5,29.83,WSW,248,4.0,8.0,70,0.00,,---,1.00,173.00,VWS V14.01,2013-08-13 23:00:00,
2013-08-13 19:05:00,89.5,78.4,29.83,WSW,248,3.0,5.0,70,0.00,,---,1.00,114.00,VWS V14.01,2013-08-13 23:05:00,
2013-08-13 19:10:00,89.3,79.1,29.83,WSW,248,3.0,6.0,72,0.00,,---,1.00,113.00,VWS V14.01,2013-08-13 23:10:00,
2013-08-13 19:15:00,89.1,78.5,29.82,WSW,248,4.0,6.0,71,0.00,,---,1.00,131.00,VWS V14.01,2013-08-13 23:15:00,
2013-08-13 19:20:00,88.9,78.7,29.82,WSW,248,3.0,6.0,72,0.00,,---,1.00,113.00,VWS V14.01,2013-08-13 23:20:00,
2013-08-13 19:25:00,88.8,78.6,29.82,WSW,248,4.0,8.0,72,0.00,,---,1.00,89.00,VWS V14.01,2013-08-13 23:25:00,
2013-08-13 19:30:00,88.5,78.7,29.82,SW,225,3.0,4.0,73,0.00,,---,1.00,58.00,VWS V14.01,2013-08-13 23:30:00,
2013-08-13 19:35:00,88.3,78.6,29.82,SW,225,2.0,4.0,73,0.00,,---,1.00,39.00,VWS V14.01,2013-08-13 23:35:00,
2013-08-13 19:40:00,88.0,78.3,29.83,SW,225,1.0,5.0,73,0.00,,---,1.00,31.00,VWS V14.01,2013-08-13 23:40:00,
2013-08-13 19:45:00,87.7,78.4,29.83,SW,225,0.0,1.0,74,0.00,,---,1.00,26.00,VWS V14.01,2013-08-13 23:45:00,
2013-08-13 19:50:00,87.4,78.5,29.83,SW,225,0.0,1.0,75,0.00,,---,1.00,22.00,VWS V14.01,2013-08-13 23:50:00,
2013-08-13 19:55:00,87.1,79.0,29.83,SW,225,0.0,0.0,77,0.00,,---,1.00,18.00,VWS V14.01,2013-08-13 23:55:00,
2013-08-13 20:00:00,86.8,79.1,29.83,SW,225,0.0,4.0,78,0.00,,---,1.00,16.00,VWS V14.01,2013-08-14 00:00:00,
2013-08-13 20:05:00,86.3,78.2,29.83,SW,225,0.0,3.0,77,0.00,,---,1.00,12.00,VWS V14.01,2013-08-14 00:05:00,
2013-08-13 20:10:00,85.9,78.2,29.83,SW,225,0.0,1.0,78,0.00,,---,1.00,9.00,VWS V14.01,2013-08-14 00:10:00,
2013-08-13 20:15:00,85.6,78.3,29.84,SW,225,0.0,0.0,79,0.00,,---,1.00,3.00,VWS V14.01,2013-08-14 00:15:00,
2013-08-13 20:20:00,85.3,78.1,29.84,SW,225,0.0,1.0,79,0.00,,---,1.00,0.00,VWS V14.01,2013-08-14 00:20:00,
2013-08-13 20:25:00,85.0,77.8,29.84,SW,225,0.0,0.0,79,0.00,,---,1.00,0.00,VWS V14.01,2013-08-14 00:25:00,
2013-08-13 20:30:00,84.7,77.5,29.84,SW,225,0.0,0.0,79,0.00,,---,1.00,0.00,VWS V14.01,2013-08-14 00:30:00,
2013-08-13 20:35:00,84.5,77.7,29.84,SW,225,0.0,1.0,80,0.00,,---,1.00,0.00,VWS V14.01,2013-08-14 00:35:00,
2013-08-13 20:40:00,84.1,77.3,29.84,SW,225,1.0,5.0,80,0.00,,---,1.00,0.00,VWS V14.01,2013-08-14 00:40:00,
2013-08-13 20:45:00,83.8,77.0,29.84,SW,225,2.0,5.0,80,0.00,,---,1.00,0.00,VWS V14.01,2013-08-14 00:45:00,
2013-08-13 20:50:00,83.6,77.2,29.84,SW,225,0.0,1.0,81,0.00,,---,1.00,0.00,VWS V14.01,2013-08-14 00:50:00,
2013-08-13 20:55:00,83.5,77.1,29.85,SW,225,0.0,1.0,81,0.00,,---,1.00,0.00,VWS V14.01,2013-08-14 00:55:00,
2013-08-13 21:00:00,83.3,76.9,29.85,SW,225,0.0,0.0,81,0.00,,---,1.00,0.00,VWS V14.01,2013-08-14 01:00:00,
2013-08-13 21:05:00,83.2,77.1,29.85,SW,225,0.0,0.0,82,0.00,,---,1.00,0.00,VWS V14.01,2013-08-14 01:05:00,
2013-08-13 21:10:00,83.0,76.9,29.84,SW,225,0.0,0.0,82,0.00,,---,1.00,0.00,VWS V14.01,2013-08-14 01:10:00,
2013-08-13 21:15:00,82.9,76.8,29.85,SW,225,0.0,0.0,82,0.00,,---,1.00,0.00,VWS V14.01,2013-08-14 01:15:00,
2013-08-13 21:20:00,82.8,77.1,29.85,SW,225,0.0,0.0,83,0.00,,---,1.00,0.00,VWS V14.01,2013-08-14 01:20:00,
2013-08-13 21:25:00,82.7,77.4,29.85,SW,225,0.0,0.0,84,0.00,,---,1.00,0.00,VWS V14.01,2013-08-14 01:25:00,
2013-08-13 21:30:00,82.5,77.2,29.85,SW,225,0.0,0.0,84,0.00,,---,1.00,0.00,VWS V14.01,2013-08-14 01:30:00,
2013-08-13 21:35:00,82.3,77.0,29.85,SW,225,0.0,0.0,84,0.00,,---,1.00,0.00,VWS V14.01,2013-08-14 01:35:00,
2013-08-13 21:40:00,82.0,76.7,29.85,SW,225,0.0,0.0,84,0.00,,---,1.00,0.00,VWS V14.01,2013-08-14 01:40:00,
2013-08-13 21:45:00,81.7,76.4,29.86,SW,225,0.0,1.0,84,0.00,,---,1.00,0.00,VWS V14.01,2013-08-14 01:45:00,
2013-08-13 21:50:00,81.5,76.6,29.86,SW,225,0.0,0.0,85,0.00,,---,1.00,0.00,VWS V14.01,2013-08-14 01:50:00,
2013-08-13 21:55:00,81.4,76.5,29.86,SW,225,0.0,0.0,85,0.00,,---,1.00,0.00,VWS V14.01,2013-08-14 01:55:00,
2013-08-13 22:00:00,81.3,76.7,29.87,SW,225,0.0,0.0,86,0.00,,---,1.00,0.00,VWS V14.01,2013-08-14 02:00:00,
2013-08-13 22:05:00,81.1,76.5,29.87,SW,225,0.0,0.0,86,0.00,,---,1.00,0.00,VWS V14.01,2013-08-14 02:05:00,
2013-08-13 22:10:00,81.0,76.4,29.87,SW,225,0.0,0.0,86,0.00,,---,1.00,0.00,VWS V14.01,2013-08-14 02:10:00,
2013-08-13 22:15:00,80.9,76.3,29.87,SW,225,0.0,0.0,86,0.00,,---,1.00,0.00,VWS V14.01,2013-08-14 02:15:00,
2013-08-13 22:20:00,80.7,76.5,29.87,SW,225,0.0,0.0,87,0.00,,---,1.00,0.00,VWS V14.01,2013-08-14 02:20:00,
2013-08-13 22:25:00,80.6,76.7,29.87,SW,225,0.0,0.0,88,0.00,,---,1.00,0.00,VWS V14.01,2013-08-14 02:25:00,
2013-08-13 22:35:00,80.2,76.3,29.87,SW,225,0.0,0.0,88,0.00,,---,1.00,0.00,VWS V14.01,2013-08-14 02:35:00,
2013-08-13 22:40:00,80.0,76.1,29.87,SW,225,0.0,0.0,88,0.00,,---,1.00,0.00,VWS V14.01,2013-08-14 02:40:00,
2013-08-13 22:55:00,79.7,76.2,29.87,SW,225,0.0,0.0,89,0.00,,---,1.00,0.00,VWS V14.01,2013-08-14 02:55:00,
2013-08-13 23:05:00,79.4,76.2,29.87,SW,225,0.0,0.0,90,0.00,,---,1.00,0.00,VWS V14.01,2013-08-14 03:05:00,
2013-08-13 23:10:00,79.2,76.0,29.87,SW,225,0.0,0.0,90,0.00,,---,1.00,0.00,VWS V14.01,2013-08-14 03:10:00,
2013-08-13 23:15:00,79.1,76.2,29.87,SW,225,0.0,0.0,91,0.00,,---,1.00,0.00,VWS V14.01,2013-08-14 03:15:00,
2013-08-13 23:20:00,79.0,76.2,29.88,SW,225,0.0,0.0,91,0.00,,---,1.00,0.00,VWS V14.01,2013-08-14 03:20:00,
2013-08-13 23:25:00,78.9,76.1,29.87,SW,225,0.0,0.0,91,0.00,,---,1.00,0.00,VWS V14.01,2013-08-14 03:25:00,
2013-08-13 23:30:00,78.7,75.9,29.87,SW,225,0.0,0.0,91,0.00,,---,1.00,0.00,VWS V14.01,2013-08-14 03:30:00,
2013-08-13 23:35:00,78.6,75.8,29.87,SW,225,0.0,0.0,91,0.00,,---,1.00,0.00,VWS V14.01,2013-08-14 03:35:00,
2013-08-13 23:40:00,78.5,76.0,29.87,SW,225,0.0,0.0,92,0.00,,---,1.00,0.00,VWS V14.01,2013-08-14 03:40:00,
2013-08-13 23:45:00,78.5,76.0,29.87,SW,225,0.0,0.0,92,0.00,,---,1.00,0.00,VWS V14.01,2013-08-14 03:45:00,
2013-08-13 23:50:00,78.4,75.9,29.88,SW,225,0.0,0.0,92,0.00,,---,1.00,0.00,VWS V14.01,2013-08-14 03:50:00,
2013-08-13 23:55:00,78.2,75.7,29.87,SW,225,0.0,1.0,92,0.00,,---,1.00,0.00,VWS V14.01,2013-08-14 03:55:00,